Lac Courte Oreilles Indian R, Wisconsin
Current Conditions -  °F | °C
As of 5:53 PM on Friday 24 Oct 2014 (Local Time) from KASX Reporting Station
Clear Clear  
Wind Chill: 60°   Ceiling: Unl
Heat Index: 60°   Visibility: 10mi
Dew Point: 52°   Wind: 14mph
Humidity: 75%   Direction: 210°SSW
Pressure: 29.78"   Gusts: NA
Location:  46.543°N, 90.8706°W
Report Text: KASX 242253Z AUTO 21012KT 10SM CLR 16/11 A2978 RMK AO2 SLP089 T01560111
Loading
Personal Weather Stations






























Interactive Weather Map
Tropical Storm Tracking
New forecast layout! Learn more

10-Day Weather Forecast

Advertisements
Track Severe Weather on mobile